createdAt,value
2022-08-21T00:02:25.735Z,30.33
2022-08-21T00:04:57.737Z,30.34
2022-08-21T00:07:27.373Z,30.37
2022-08-21T00:09:57.120Z,30.36
2022-08-21T00:12:26.413Z,30.33
2022-08-21T00:14:58.052Z,30.27
2022-08-21T00:17:27.601Z,30.24
2022-08-21T00:19:56.512Z,30.26
2022-08-21T00:22:25.485Z,30.28
2022-08-21T00:24:54.580Z,30.25
2022-08-21T00:27:24.047Z,30.24
2022-08-21T00:29:53.919Z,30.15
2022-08-21T00:32:27.295Z,30.42
2022-08-21T00:34:56.862Z,30.36
2022-08-21T00:37:25.787Z,30.33
2022-08-21T00:39:55.171Z,30.36
2022-08-21T00:42:24.355Z,30.38
2022-08-21T00:44:53.548Z,30.36
2022-08-21T00:47:22.956Z,30.31
2022-08-21T00:49:52.263Z,30.40
2022-08-21T00:52:27.015Z,30.49
2022-08-21T00:54:57.900Z,30.44
2022-08-21T00:57:32.959Z,30.57
2022-08-21T01:00:06.548Z,30.56
2022-08-21T01:02:36.751Z,30.45
2022-08-21T01:05:06.961Z,30.51
2022-08-21T01:07:36.224Z,30.50
2022-08-21T01:10:06.918Z,30.56
2022-08-21T01:12:37.782Z,30.54
2022-08-21T01:15:08.181Z,30.60
2022-08-21T01:17:38.179Z,30.61
2022-08-21T01:20:10.608Z,30.63
2022-08-21T01:22:39.318Z,30.83
2022-08-21T01:25:10.177Z,30.68
2022-08-21T01:27:39.954Z,30.57
2022-08-21T01:30:16.723Z,30.78
2022-08-21T01:32:46.449Z,30.71
2022-08-21T01:35:18.185Z,30.69
2022-08-21T01:37:48.611Z,30.68
2022-08-21T01:40:19.431Z,30.74
2022-08-21T01:42:48.960Z,30.76
2022-08-21T01:45:18.143Z,30.69
2022-08-21T01:47:48.024Z,30.75
2022-08-21T01:50:20.596Z,30.88
2022-08-21T01:52:50.590Z,30.85
2022-08-21T01:55:20.651Z,30.95
2022-08-21T01:57:50.078Z,30.96
2022-08-21T02:00:22.138Z,31.00
2022-08-21T02:02:52.354Z,31.01
2022-08-21T02:05:21.874Z,30.88
2022-08-21T02:07:53.922Z,30.94
2022-08-21T02:10:26.130Z,31.04
2022-08-21T02:12:55.095Z,31.30
2022-08-21T02:15:24.759Z,31.17
2022-08-21T02:18:00.485Z,31.26
2022-08-21T02:20:38.119Z,31.38
2022-08-21T02:23:08.759Z,31.31
2022-08-21T02:25:39.061Z,31.06
2022-08-21T02:28:12.733Z,31.16
2022-08-21T02:30:47.057Z,31.35
2022-08-21T02:33:16.715Z,31.28
2022-08-21T02:35:48.067Z,31.34
2022-08-21T02:38:21.166Z,31.42
2022-08-21T02:40:53.156Z,31.36
2022-08-21T02:43:24.347Z,31.24
2022-08-21T02:45:54.617Z,31.43
2022-08-21T02:48:30.046Z,31.47
2022-08-21T02:51:01.786Z,31.55
2022-08-21T02:53:32.322Z,31.60
2022-08-21T02:56:04.045Z,31.75
2022-08-21T02:58:36.134Z,31.80
2022-08-21T03:01:06.058Z,31.94
2022-08-21T03:03:36.547Z,31.97
2022-08-21T03:06:07.546Z,31.85
2022-08-21T03:08:37.626Z,31.96
2022-08-21T03:11:08.287Z,32.07
2022-08-21T03:13:41.037Z,32.24
2022-08-21T03:16:10.693Z,32.18
2022-08-21T03:18:40.074Z,32.32
2022-08-21T03:21:09.451Z,32.37
2022-08-21T03:23:38.352Z,32.33
2022-08-21T03:26:08.028Z,32.46
2022-08-21T03:28:37.165Z,32.46
2022-08-21T03:31:07.578Z,32.48
2022-08-21T03:33:36.877Z,32.52
2022-08-21T03:36:08.804Z,32.70
2022-08-21T03:38:40.073Z,32.78
2022-08-21T03:41:09.329Z,32.83
2022-08-21T03:43:39.198Z,32.86
2022-08-21T03:46:09.848Z,32.68
2022-08-21T03:48:39.407Z,32.70
2022-08-21T03:51:08.927Z,32.98
2022-08-21T03:53:38.273Z,33.14
2022-08-21T03:56:08.615Z,33.16
2022-08-21T03:58:37.540Z,33.12
2022-08-21T04:01:08.731Z,33.31
2022-08-21T04:03:39.095Z,33.49
2022-08-21T04:06:09.815Z,33.46
2022-08-21T04:08:38.971Z,33.39
2022-08-21T04:11:08.335Z,33.39
2022-08-21T04:13:43.196Z,33.49
2022-08-21T04:16:14.459Z,33.60
2022-08-21T04:18:44.832Z,33.63
2022-08-21T04:21:14.183Z,33.73
2022-08-21T04:23:43.364Z,33.88
2022-08-21T04:26:12.362Z,33.97
2022-08-21T04:28:41.332Z,34.00
2022-08-21T04:31:11.782Z,34.03
2022-08-21T04:33:40.680Z,34.13
2022-08-21T04:36:10.530Z,34.21
2022-08-21T04:38:44.441Z,34.30
2022-08-21T04:41:13.532Z,34.36
2022-08-21T04:43:43.437Z,34.14
2022-08-21T04:46:13.546Z,34.03
2022-08-21T04:48:43.292Z,34.19
2022-08-21T04:51:18.253Z,34.38
2022-08-21T04:53:54.711Z,34.67
2022-08-21T04:56:28.057Z,34.82
2022-08-21T04:59:00.484Z,34.78
2022-08-21T05:01:32.157Z,34.66
2022-08-21T05:04:04.554Z,34.55
2022-08-21T05:06:37.213Z,34.96
2022-08-21T05:09:06.939Z,34.80
2022-08-21T05:11:36.904Z,34.92
2022-08-21T05:14:06.082Z,34.75
2022-08-21T05:16:37.401Z,34.90
2022-08-21T05:19:10.684Z,35.15
2022-08-21T05:21:43.195Z,35.34
2022-08-21T05:24:13.550Z,35.36
2022-08-21T05:26:43.073Z,35.28
2022-08-21T05:29:16.674Z,35.13
2022-08-21T05:31:49.263Z,34.94
2022-08-21T05:34:25.087Z,35.09
2022-08-21T05:36:54.161Z,34.71
2022-08-21T05:39:23.140Z,34.90
2022-08-21T05:41:52.085Z,35.05
2022-08-21T05:44:21.006Z,34.91
2022-08-21T05:46:51.343Z,34.76
2022-08-21T05:49:20.943Z,34.74
2022-08-21T05:51:49.787Z,34.58
2022-08-21T05:54:18.782Z,34.65
2022-08-21T05:56:48.542Z,34.90
2022-08-21T05:59:18.061Z,34.92
2022-08-21T06:01:47.459Z,34.94
2022-08-21T06:04:18.332Z,35.14
2022-08-21T06:06:49.615Z,35.38
2022-08-21T06:09:19.069Z,35.17
2022-08-21T06:11:48.415Z,35.47
2022-08-21T06:14:18.648Z,35.61
2022-08-21T06:16:48.765Z,35.61
2022-08-21T06:19:17.898Z,35.39
2022-08-21T06:21:46.798Z,35.53
2022-08-21T06:24:16.544Z,35.72
2022-08-21T06:26:45.547Z,35.83
2022-08-21T06:29:18.868Z,35.75
2022-08-21T06:31:51.648Z,35.99
2022-08-21T06:34:21.723Z,36.09
2022-08-21T06:36:50.765Z,36.16
2022-08-21T06:39:25.585Z,36.26
2022-08-21T06:41:59.920Z,36.09
2022-08-21T06:44:32.651Z,36.09
2022-08-21T06:47:01.811Z,35.87
2022-08-21T06:49:30.469Z,35.85
2022-08-21T06:51:59.392Z,35.45
2022-08-21T06:54:28.368Z,35.50
2022-08-21T06:56:57.168Z,35.47
2022-08-21T06:59:26.105Z,35.56
2022-08-21T07:01:55.295Z,35.56
2022-08-21T07:04:24.530Z,35.66
2022-08-21T07:06:53.196Z,35.64
2022-08-21T07:09:24.676Z,35.60
2022-08-21T07:11:56.944Z,35.64
2022-08-21T07:14:26.078Z,35.66
2022-08-21T07:16:55.552Z,35.66
2022-08-21T07:19:24.501Z,35.59
2022-08-21T07:21:59.998Z,35.80
2022-08-21T07:24:29.587Z,35.82
2022-08-21T07:26:59.042Z,35.89
2022-08-21T07:29:27.974Z,35.99
2022-08-21T07:31:56.706Z,35.98
2022-08-21T07:34:25.986Z,36.16
2022-08-21T07:36:55.054Z,36.20
2022-08-21T07:39:24.012Z,36.13
2022-08-21T07:41:53.547Z,36.20
2022-08-21T07:44:22.371Z,36.28
2022-08-21T07:46:51.024Z,36.22
2022-08-21T07:49:20.613Z,36.28
2022-08-21T07:51:49.346Z,36.49
2022-08-21T07:54:18.603Z,36.60
2022-08-21T07:56:59.586Z,36.56
2022-08-21T07:59:28.592Z,36.58
2022-08-21T08:01:58.498Z,36.56
2022-08-21T08:04:27.749Z,36.59
2022-08-21T08:06:56.615Z,36.56
2022-08-21T08:09:28.527Z,36.68
2022-08-21T08:11:57.567Z,36.62
2022-08-21T08:14:31.435Z,36.55
2022-08-21T08:17:00.847Z,36.56
2022-08-21T08:19:30.618Z,36.58
2022-08-21T08:21:59.363Z,36.51
2022-08-21T08:24:28.542Z,36.42
2022-08-21T08:26:58.899Z,36.76
2022-08-21T08:29:27.820Z,36.96
2022-08-21T08:31:59.978Z,36.76
2022-08-21T08:34:29.219Z,36.97
2022-08-21T08:36:59.917Z,37.06
2022-08-21T08:39:30.144Z,37.23
2022-08-21T08:42:33.686Z,37.06
2022-08-21T08:45:07.207Z,37.17
2022-08-21T08:47:40.526Z,36.89
2022-08-21T08:50:14.853Z,36.90
2022-08-21T08:52:51.139Z,36.89
2022-08-21T08:55:27.252Z,36.79
2022-08-21T08:57:57.567Z,36.69
2022-08-21T09:00:27.550Z,36.60
2022-08-21T09:03:03.360Z,37.00
2022-08-21T09:05:50.463Z,37.11
2022-08-21T09:08:37.085Z,36.97
2022-08-21T09:11:33.738Z,37.18
2022-08-21T09:14:47.924Z,37.21
2022-08-21T09:17:17.424Z,36.96
2022-08-21T09:20:36.421Z,37.15
2022-08-21T09:23:13.917Z,37.11
2022-08-21T09:26:02.355Z,36.68
2022-08-21T09:28:37.070Z,36.82
2022-08-21T09:31:18.704Z,36.72
2022-08-21T09:33:48.075Z,36.64
2022-08-21T09:36:43.740Z,37.03
2022-08-21T09:39:15.466Z,36.88
2022-08-21T09:41:44.470Z,36.85
2022-08-21T09:44:13.740Z,36.78
2022-08-21T09:46:54.554Z,37.12
2022-08-21T09:49:38.392Z,36.93
2022-08-21T09:52:27.637Z,36.92
2022-08-21T09:54:58.299Z,36.77
2022-08-21T09:57:46.255Z,36.80
2022-08-21T10:00:27.601Z,36.80
2022-08-21T10:02:56.627Z,36.75
2022-08-21T10:05:30.132Z,36.90
2022-08-21T10:07:59.108Z,36.58
2022-08-21T10:10:39.496Z,36.47
2022-08-21T10:13:36.921Z,36.64
2022-08-21T10:16:14.049Z,36.54
2022-08-21T10:18:59.302Z,36.74
2022-08-21T10:21:41.670Z,36.51
2022-08-21T10:24:31.170Z,36.62
2022-08-21T10:27:13.350Z,36.43
2022-08-21T10:29:52.584Z,36.58
2022-08-21T10:32:56.934Z,36.68
2022-08-21T10:35:32.685Z,36.41
2022-08-21T10:38:50.408Z,36.67
2022-08-21T10:41:31.275Z,36.46
2022-08-21T10:44:30.171Z,36.46
2022-08-21T10:47:14.033Z,36.47
2022-08-21T10:50:06.888Z,36.40
2022-08-21T10:52:46.421Z,35.96
2022-08-21T10:55:33.622Z,36.24
2022-08-21T10:58:26.543Z,36.56
2022-08-21T11:01:03.593Z,36.42
2022-08-21T11:03:46.078Z,36.43
2022-08-21T11:06:26.181Z,36.31
2022-08-21T11:09:09.756Z,36.32
2022-08-21T11:11:59.536Z,36.24
2022-08-21T11:14:57.851Z,36.43
2022-08-21T11:17:45.583Z,36.39
2022-08-21T11:20:18.255Z,36.10
2022-08-21T11:22:58.944Z,36.31
2022-08-21T11:25:36.461Z,36.04
2022-08-21T11:28:24.858Z,36.45
2022-08-21T11:31:00.098Z,36.33
2022-08-21T11:33:37.373Z,36.29
2022-08-21T11:36:30.947Z,36.37
2022-08-21T11:39:14.690Z,36.41
2022-08-21T11:42:08.758Z,36.22
2022-08-21T11:45:09.832Z,36.22
2022-08-21T11:48:02.994Z,36.29
2022-08-21T11:50:36.155Z,36.33
2022-08-21T11:53:15.665Z,36.43
2022-08-21T11:55:53.671Z,36.33
2022-08-21T11:58:29.189Z,36.35
2022-08-21T12:01:09.643Z,36.22
2022-08-21T12:03:42.864Z,36.38
2022-08-21T12:06:24.127Z,36.26
2022-08-21T12:09:02.369Z,36.41
2022-08-21T12:11:31.901Z,36.21
2022-08-21T12:14:03.509Z,36.14
2022-08-21T12:16:38.748Z,36.24
2022-08-21T12:19:33.031Z,36.22
2022-08-21T12:22:08.497Z,36.09
2022-08-21T12:25:05.631Z,36.15
2022-08-21T12:28:05.096Z,36.16
2022-08-21T12:30:41.186Z,35.97
2022-08-21T12:33:32.008Z,36.03
2022-08-21T12:36:27.898Z,35.89
2022-08-21T12:39:02.314Z,35.85
2022-08-21T12:41:40.755Z,35.73
2022-08-21T12:44:30.707Z,35.73
2022-08-21T12:47:05.111Z,35.60
2022-08-21T12:49:45.609Z,35.56
2022-08-21T12:52:35.690Z,35.56
2022-08-21T12:55:10.030Z,35.27
2022-08-21T12:57:40.473Z,35.30
2022-08-21T13:00:14.844Z,35.36
2022-08-21T13:02:51.598Z,35.45
2022-08-21T13:05:36.821Z,35.36
2022-08-21T13:08:08.347Z,35.17
2022-08-21T13:10:39.082Z,35.11
2022-08-21T13:13:14.542Z,35.12
2022-08-21T13:16:00.587Z,35.15
2022-08-21T13:18:32.805Z,35.03
2022-08-21T13:21:16.441Z,35.05
2022-08-21T13:23:49.090Z,34.76
2022-08-21T13:26:22.250Z,34.80
2022-08-21T13:28:52.353Z,34.68
2022-08-21T13:31:33.425Z,34.73
2022-08-21T13:34:03.019Z,34.61
2022-08-21T13:36:36.647Z,34.67
2022-08-21T13:39:09.103Z,34.61
2022-08-21T13:41:42.687Z,34.65
2022-08-21T13:44:37.592Z,34.69
2022-08-21T13:47:08.804Z,34.52
2022-08-21T13:49:44.375Z,34.46
2022-08-21T13:52:25.851Z,34.56
2022-08-21T13:55:03.474Z,34.51
2022-08-21T13:57:35.569Z,34.47
2022-08-21T14:00:18.092Z,34.58
2022-08-21T14:02:51.821Z,34.39
2022-08-21T14:05:29.646Z,34.51
2022-08-21T14:08:22.735Z,34.56
2022-08-21T14:11:00.337Z,34.28
2022-08-21T14:13:39.059Z,34.39
2022-08-21T14:16:16.600Z,34.41
2022-08-21T14:18:48.504Z,34.25
2022-08-21T14:21:29.692Z,34.29
2022-08-21T14:24:41.447Z,34.29
2022-08-21T14:27:10.685Z,34.10
2022-08-21T14:29:44.106Z,34.22
2022-08-21T14:32:24.948Z,34.03
2022-08-21T14:34:58.045Z,33.95
2022-08-21T14:37:28.556Z,33.95
2022-08-21T14:39:57.630Z,33.98
2022-08-21T14:42:27.364Z,33.82
2022-08-21T14:45:02.208Z,33.93
2022-08-21T14:47:31.047Z,33.79
2022-08-21T14:50:00.610Z,33.72
2022-08-21T14:52:29.347Z,33.73
2022-08-21T14:54:58.613Z,33.62
2022-08-21T14:57:29.266Z,33.68
2022-08-21T15:00:01.765Z,33.62
2022-08-21T15:02:31.367Z,33.58
2022-08-21T15:05:00.416Z,33.55
2022-08-21T15:07:29.567Z,33.58
2022-08-21T15:09:58.679Z,33.50
2022-08-21T15:12:28.190Z,33.46
2022-08-21T15:14:57.512Z,33.45
2022-08-21T15:17:26.675Z,33.39
2022-08-21T15:19:55.758Z,33.39
2022-08-21T15:22:27.772Z,33.36
2022-08-21T15:24:57.234Z,33.35
2022-08-21T15:27:26.072Z,33.30
2022-08-21T15:29:56.150Z,33.28
2022-08-21T15:32:29.327Z,33.31
2022-08-21T15:34:59.564Z,33.24
2022-08-21T15:37:28.887Z,33.23
2022-08-21T15:39:57.677Z,33.19
2022-08-21T15:42:29.294Z,33.25
2022-08-21T15:45:00.143Z,33.23
2022-08-21T15:47:35.603Z,33.27
2022-08-21T15:50:10.024Z,33.26
2022-08-21T15:52:39.519Z,33.16
2022-08-21T15:55:09.380Z,33.16
2022-08-21T15:57:39.709Z,33.11
2022-08-21T16:00:16.328Z,33.21
2022-08-21T16:02:49.311Z,33.14
2022-08-21T16:05:18.973Z,33.09
2022-08-21T16:07:49.540Z,33.09
2022-08-21T16:10:22.060Z,33.09
2022-08-21T16:13:00.973Z,33.14
2022-08-21T16:15:30.930Z,33.05
2022-08-21T16:18:00.716Z,33.01
2022-08-21T16:20:31.133Z,33.11
2022-08-21T16:23:01.210Z,33.04
2022-08-21T16:25:30.539Z,33.03
2022-08-21T16:28:04.026Z,33.09
2022-08-21T16:30:33.744Z,33.00
2022-08-21T16:33:04.416Z,33.06
2022-08-21T16:35:33.673Z,33.02
2022-08-21T16:38:03.552Z,32.99
2022-08-21T16:40:32.274Z,32.96
2022-08-21T16:43:01.161Z,32.97
2022-08-21T16:45:33.230Z,32.96
2022-08-21T16:48:05.555Z,32.95
2022-08-21T16:50:34.493Z,32.90
2022-08-21T16:53:03.710Z,32.86
2022-08-21T16:55:32.974Z,32.84
2022-08-21T16:58:04.200Z,32.90
2022-08-21T17:00:33.485Z,32.85
2022-08-21T17:03:02.272Z,32.81
2022-08-21T17:05:31.363Z,32.79
2022-08-21T17:08:00.241Z,32.80
2022-08-21T17:10:29.136Z,32.81
2022-08-21T17:13:00.525Z,32.86
2022-08-21T17:15:33.647Z,32.86
2022-08-21T17:18:04.260Z,32.81
2022-08-21T17:20:33.548Z,32.81
2022-08-21T17:23:02.280Z,32.80
2022-08-21T17:25:32.618Z,32.86
2022-08-21T17:28:01.929Z,32.82
2022-08-21T17:30:31.064Z,32.78
2022-08-21T17:33:01.834Z,32.84
2022-08-21T17:35:31.041Z,32.80
2022-08-21T17:38:01.303Z,32.85
2022-08-21T17:40:32.405Z,32.83
2022-08-21T17:43:09.752Z,32.87
2022-08-21T17:45:43.620Z,32.75
2022-08-21T17:48:13.262Z,32.72
2022-08-21T17:50:42.347Z,32.67
2022-08-21T17:53:11.299Z,32.68
2022-08-21T17:55:42.580Z,32.67
2022-08-21T17:58:14.546Z,32.67
2022-08-21T18:00:44.279Z,32.66
2022-08-21T18:03:21.612Z,32.75
2022-08-21T18:05:52.871Z,32.70
2022-08-21T18:08:21.903Z,32.69
2022-08-21T18:10:53.163Z,32.83
2022-08-21T18:13:27.816Z,32.95
2022-08-21T18:15:58.813Z,32.90
2022-08-21T18:18:29.809Z,32.86
2022-08-21T18:20:59.015Z,32.83
2022-08-21T18:23:44.351Z,32.80
2022-08-21T18:26:24.829Z,32.90
2022-08-21T18:28:54.143Z,32.73
2022-08-21T18:31:23.252Z,32.77
2022-08-21T18:33:57.961Z,32.78
2022-08-21T18:36:31.052Z,32.91
2022-08-21T18:39:13.851Z,33.08
2022-08-21T18:41:50.472Z,32.84
2022-08-21T18:44:23.194Z,32.82
2022-08-21T18:47:05.635Z,32.97
2022-08-21T18:49:34.806Z,32.83
2022-08-21T18:52:03.953Z,32.74
2022-08-21T18:54:33.400Z,32.81
2022-08-21T18:57:09.095Z,32.81
2022-08-21T18:59:39.024Z,32.75
2022-08-21T19:02:09.242Z,32.76
2022-08-21T19:07:28.527Z,32.79
2022-08-21T19:10:24.283Z,32.72
2022-08-21T19:12:47.251Z,32.75
2022-08-21T19:15:18.999Z,32.75
2022-08-21T19:17:50.739Z,32.70
2022-08-21T19:20:27.695Z,32.79
2022-08-21T19:22:57.661Z,32.69
2022-08-21T19:25:33.870Z,32.72
2022-08-21T19:28:13.342Z,32.83
2022-08-21T19:30:47.933Z,32.79
2022-08-21T19:33:23.404Z,32.80
2022-08-21T19:35:54.587Z,32.71
2022-08-21T19:38:24.520Z,32.76
2022-08-21T19:40:56.018Z,32.72
2022-08-21T19:43:26.313Z,32.73
2022-08-21T19:46:00.445Z,32.68
2022-08-21T19:48:30.707Z,32.60
2022-08-21T19:51:00.081Z,32.60
2022-08-21T19:53:29.456Z,32.56
2022-08-21T19:55:58.646Z,32.55
2022-08-21T19:58:36.239Z,32.64
2022-08-21T20:01:16.550Z,32.59
2022-08-21T20:03:54.147Z,32.63
2022-08-21T20:06:25.391Z,32.60
2022-08-21T20:08:56.136Z,32.58
2022-08-21T20:11:32.660Z,32.64
2022-08-21T20:14:02.377Z,32.54
2022-08-21T20:16:34.743Z,32.55
2022-08-21T20:19:06.232Z,32.54
2022-08-21T20:21:43.935Z,32.54
2022-08-21T20:24:15.468Z,32.55
2022-08-21T20:26:48.766Z,32.53
2022-08-21T20:29:24.626Z,32.47
2022-08-21T20:32:01.206Z,32.44
2022-08-21T20:34:30.474Z,32.43
2022-08-21T20:37:01.044Z,32.42
2022-08-21T20:39:30.068Z,32.34
2022-08-21T20:41:59.927Z,32.35
2022-08-21T20:44:33.708Z,32.45
2022-08-21T20:47:08.534Z,32.36
2022-08-21T20:49:49.496Z,32.44
2022-08-21T20:52:20.530Z,32.31
2022-08-21T20:55:03.116Z,32.39
2022-08-21T20:57:51.164Z,32.47
2022-08-21T21:00:23.339Z,32.32
2022-08-21T21:03:06.514Z,32.39
2022-08-21T21:05:42.593Z,32.41
2022-08-21T21:08:31.810Z,32.25
2022-08-21T21:11:24.109Z,32.35
2022-08-21T21:14:05.584Z,32.28
2022-08-21T21:16:51.122Z,32.38
2022-08-21T21:19:58.508Z,32.43
2022-08-21T21:22:43.545Z,32.46
2022-08-21T21:25:20.184Z,32.38
2022-08-21T21:27:59.444Z,32.38
2022-08-21T21:30:36.797Z,32.35
2022-08-21T21:33:06.630Z,32.24
2022-08-21T21:36:11.727Z,32.40
2022-08-21T21:38:55.271Z,32.36
2022-08-21T21:41:59.032Z,32.29
2022-08-21T21:45:07.136Z,32.37
2022-08-21T21:47:45.900Z,32.33
2022-08-21T21:50:46.522Z,32.32
2022-08-21T21:53:21.376Z,32.15
2022-08-21T21:55:56.185Z,32.28
2022-08-21T21:58:52.876Z,32.28
2022-08-21T22:01:30.447Z,32.15
2022-08-21T22:04:03.940Z,32.27
2022-08-21T22:06:57.735Z,32.25
2022-08-21T22:09:43.862Z,32.34
2022-08-21T22:12:25.410Z,32.22
2022-08-21T22:14:54.385Z,32.21
2022-08-21T22:17:54.174Z,32.31
2022-08-21T22:20:35.230Z,32.16
2022-08-21T22:23:10.395Z,32.05
2022-08-21T22:25:45.438Z,32.08
2022-08-21T22:28:18.023Z,32.06
2022-08-21T22:31:12.913Z,32.16
2022-08-21T22:33:43.571Z,32.02
2022-08-21T22:36:20.575Z,32.16
2022-08-21T22:41:42.909Z,32.06
2022-08-21T22:44:27.184Z,32.20
2022-08-21T22:47:03.041Z,32.19
2022-08-21T22:49:49.816Z,32.25
2022-08-21T22:52:26.790Z,32.24
2022-08-21T22:54:59.991Z,32.15
2022-08-21T22:57:36.717Z,32.27
2022-08-21T23:00:12.148Z,32.07
2022-08-21T23:02:52.241Z,32.19
2022-08-21T23:05:33.068Z,32.19
2022-08-21T23:08:27.439Z,32.31
2022-08-21T23:11:03.033Z,32.19
2022-08-21T23:13:45.929Z,32.19
2022-08-21T23:16:56.843Z,32.22
2022-08-21T23:19:38.019Z,32.15
2022-08-21T23:22:33.616Z,32.26
2022-08-21T23:25:27.440Z,32.26
2022-08-21T23:28:18.955Z,32.20
2022-08-21T23:31:26.776Z,32.24
2022-08-21T23:34:06.115Z,32.02
2022-08-21T23:37:08.401Z,32.13
2022-08-21T23:40:18.563Z,32.18
2022-08-21T23:42:50.142Z,31.94
2022-08-21T23:45:48.973Z,32.06
2022-08-21T23:48:38.429Z,32.04
2022-08-21T23:51:45.632Z,32.01
2022-08-21T23:54:49.397Z,31.90
2022-08-21T23:57:37.027Z,31.87
